createdAt,value
2018-07-06T00:00:01.510Z,1015.35
2018-07-06T00:01:28.557Z,1015.34
2018-07-06T00:02:55.848Z,1015.34
2018-07-06T00:04:23.401Z,1015.32
2018-07-06T00:05:50.468Z,1015.32
2018-07-06T00:07:17.368Z,1015.35
2018-07-06T00:08:44.978Z,1015.36
2018-07-06T00:10:12.299Z,1015.36
2018-07-06T00:11:39.875Z,1015.36
2018-07-06T00:13:06.632Z,1015.38
2018-07-06T00:14:33.825Z,1015.39
2018-07-06T00:16:00.939Z,1015.38
2018-07-06T00:17:27.941Z,1015.37
2018-07-06T00:18:55.167Z,1015.38
2018-07-06T00:20:22.264Z,1015.41
2018-07-06T00:21:49.594Z,1015.38
2018-07-06T00:23:16.621Z,1015.38
2018-07-06T00:24:44.097Z,1015.37
2018-07-06T00:26:11.357Z,1015.38
2018-07-06T00:27:38.946Z,1015.41
2018-07-06T00:29:06.544Z,1015.45
2018-07-06T00:30:33.868Z,1015.46
2018-07-06T00:32:01.207Z,1015.49
2018-07-06T00:33:28.370Z,1015.48
2018-07-06T00:34:55.244Z,1015.50
2018-07-06T00:36:22.662Z,1015.48
2018-07-06T00:37:49.650Z,1015.50
2018-07-06T00:39:16.634Z,1015.50
2018-07-06T00:40:43.667Z,1015.51
2018-07-06T00:42:11.251Z,1015.50
2018-07-06T00:43:38.366Z,1015.51
2018-07-06T00:45:05.730Z,1015.50
2018-07-06T00:46:32.398Z,1015.51
2018-07-06T00:47:59.682Z,1015.50
2018-07-06T00:49:26.910Z,1015.51
2018-07-06T00:50:54.103Z,1015.51
2018-07-06T00:52:21.327Z,1015.51
2018-07-06T00:53:48.765Z,1015.51
2018-07-06T00:55:16.009Z,1015.50
2018-07-06T00:56:43.543Z,1015.50
2018-07-06T00:58:10.709Z,1015.51
2018-07-06T00:59:38.318Z,1015.54
2018-07-06T01:01:05.752Z,1015.54
2018-07-06T01:02:32.710Z,1015.53
2018-07-06T01:03:59.945Z,1015.53
2018-07-06T01:05:27.171Z,1015.53
2018-07-06T01:06:54.405Z,1015.52
2018-07-06T01:08:21.996Z,1015.51
2018-07-06T01:09:49.462Z,1015.50
2018-07-06T01:11:17.094Z,1015.49
2018-07-06T01:12:43.772Z,1015.45
2018-07-06T01:14:11.259Z,1015.42
2018-07-06T01:15:38.485Z,1015.44
2018-07-06T01:17:05.560Z,1015.44
2018-07-06T01:18:33.091Z,1015.43
2018-07-06T01:20:00.451Z,1015.43
2018-07-06T01:21:27.823Z,1015.43
2018-07-06T01:22:55.312Z,1015.43
2018-07-06T01:24:22.681Z,1015.46
2018-07-06T01:25:50.163Z,1015.47
2018-07-06T01:27:17.463Z,1015.47
2018-07-06T01:28:44.586Z,1015.47
2018-07-06T01:30:12.008Z,1015.47
2018-07-06T01:31:39.461Z,1015.47
2018-07-06T01:33:06.833Z,1015.48
2018-07-06T01:34:33.989Z,1015.47
2018-07-06T01:36:01.621Z,1015.48
2018-07-06T01:37:29.088Z,1015.51
2018-07-06T01:38:56.385Z,1015.53
2018-07-06T01:40:23.397Z,1015.53
2018-07-06T01:41:50.585Z,1015.53
2018-07-06T01:43:17.965Z,1015.55
2018-07-06T01:44:45.524Z,1015.56
2018-07-06T01:46:13.218Z,1015.55
2018-07-06T01:47:40.655Z,1015.58
2018-07-06T01:49:08.030Z,1015.59
2018-07-06T01:50:35.374Z,1015.58
2018-07-06T01:52:02.661Z,1015.60
2018-07-06T01:53:29.968Z,1015.60
2018-07-06T01:54:57.479Z,1015.66
2018-07-06T01:56:24.784Z,1015.63
2018-07-06T01:57:52.161Z,1015.65
2018-07-06T01:59:19.618Z,1015.65
2018-07-06T02:00:47.029Z,1015.67
2018-07-06T02:02:14.504Z,1015.65
2018-07-06T02:03:41.989Z,1015.64
2018-07-06T02:05:09.495Z,1015.65
2018-07-06T02:06:36.946Z,1015.67
2018-07-06T02:08:04.325Z,1015.69
2018-07-06T02:09:31.730Z,1015.69
2018-07-06T02:10:58.946Z,1015.69
2018-07-06T02:12:26.447Z,1015.67
2018-07-06T02:13:54.072Z,1015.66
2018-07-06T02:15:21.579Z,1015.64
2018-07-06T02:16:48.800Z,1015.63
2018-07-06T02:18:16.098Z,1015.65
2018-07-06T02:19:43.382Z,1015.63
2018-07-06T02:21:10.503Z,1015.64
2018-07-06T02:22:38.006Z,1015.61
2018-07-06T02:24:05.513Z,1015.64
2018-07-06T02:25:32.961Z,1015.62
2018-07-06T02:27:00.336Z,1015.63
2018-07-06T02:28:27.787Z,1015.59
2018-07-06T02:29:55.160Z,1015.60
2018-07-06T02:31:22.847Z,1015.63
2018-07-06T02:32:50.258Z,1015.67
2018-07-06T02:34:17.538Z,1015.68
2018-07-06T02:35:45.042Z,1015.68
2018-07-06T02:37:12.609Z,1015.70
2018-07-06T02:38:39.595Z,1015.73
2018-07-06T02:40:06.878Z,1015.72
2018-07-06T02:41:34.427Z,1015.73
2018-07-06T02:43:01.395Z,1015.74
2018-07-06T02:44:28.357Z,1015.76
2018-07-06T02:45:55.906Z,1015.76
2018-07-06T02:47:23.311Z,1015.76
2018-07-06T02:48:50.630Z,1015.79
2018-07-06T02:50:17.981Z,1015.83
2018-07-06T02:51:45.565Z,1015.85
2018-07-06T02:53:13.115Z,1015.83
2018-07-06T02:54:40.528Z,1015.83
2018-07-06T02:56:07.990Z,1015.87
2018-07-06T02:57:35.511Z,1015.86
2018-07-06T02:59:03.053Z,1015.86
2018-07-06T03:00:30.389Z,1015.83
2018-07-06T03:01:57.690Z,1015.83
2018-07-06T03:03:25.008Z,1015.82
2018-07-06T03:04:52.378Z,1015.81
2018-07-06T03:06:20.010Z,1015.85
2018-07-06T03:07:47.422Z,1015.85
2018-07-06T03:09:14.991Z,1015.85
2018-07-06T03:10:42.331Z,1015.84
2018-07-06T03:12:09.647Z,1015.85
2018-07-06T03:13:36.859Z,1015.79
2018-07-06T03:15:04.414Z,1015.85
2018-07-06T03:16:31.888Z,1015.87
2018-07-06T03:17:59.201Z,1015.91
2018-07-06T03:19:26.445Z,1015.91
2018-07-06T03:20:53.970Z,1015.93
2018-07-06T03:22:21.358Z,1015.92
2018-07-06T03:23:49.010Z,1015.94
2018-07-06T03:25:16.369Z,1015.94
2018-07-06T03:26:43.872Z,1015.97
2018-07-06T03:28:11.302Z,1015.97
2018-07-06T03:29:38.644Z,1015.96
2018-07-06T03:31:05.965Z,1015.94
2018-07-06T03:32:33.341Z,1015.94
2018-07-06T03:34:00.896Z,1015.94
2018-07-06T03:35:27.819Z,1015.95
2018-07-06T03:36:55.247Z,1015.96
2018-07-06T03:38:22.603Z,1015.96
2018-07-06T03:39:49.916Z,1015.97
2018-07-06T03:41:17.199Z,1015.98
2018-07-06T03:42:44.605Z,1016.03
2018-07-06T03:44:11.797Z,1016.05
2018-07-06T03:45:39.138Z,1016.06
2018-07-06T03:47:06.545Z,1016.07
2018-07-06T03:48:33.770Z,1016.07
2018-07-06T03:50:01.135Z,1016.05
2018-07-06T03:51:28.490Z,1016.05
2018-07-06T03:52:55.861Z,1016.09
2018-07-06T03:54:23.326Z,1016.12
2018-07-06T03:55:50.807Z,1016.12
2018-07-06T03:57:18.276Z,1016.14
2018-07-06T03:58:45.692Z,1016.11
2018-07-06T04:00:13.139Z,1016.10
2018-07-06T04:01:40.391Z,1016.10
2018-07-06T04:03:07.862Z,1016.08
2018-07-06T04:04:35.432Z,1016.12
2018-07-06T04:06:02.798Z,1016.13
2018-07-06T04:07:30.240Z,1016.15
2018-07-06T04:08:57.506Z,1016.12
2018-07-06T04:10:24.890Z,1016.12
2018-07-06T04:11:52.125Z,1016.12
2018-07-06T04:13:19.581Z,1016.13
2018-07-06T04:14:47.004Z,1016.15
2018-07-06T04:16:14.351Z,1016.13
2018-07-06T04:17:41.655Z,1016.13
2018-07-06T04:19:08.535Z,1016.10
2018-07-06T04:20:35.704Z,1016.09
2018-07-06T04:22:03.021Z,1016.09
2018-07-06T04:23:30.359Z,1016.10
2018-07-06T04:24:57.414Z,1016.07
2018-07-06T04:26:24.525Z,1016.07
2018-07-06T04:27:51.572Z,1016.03
2018-07-06T04:29:18.601Z,1015.98
2018-07-06T04:30:45.695Z,1015.98
2018-07-06T04:32:13.093Z,1015.97
2018-07-06T04:33:40.512Z,1015.98
2018-07-06T04:35:07.743Z,1016.00
2018-07-06T04:36:35.187Z,1016.05
2018-07-06T04:38:02.634Z,1015.98
2018-07-06T04:39:29.598Z,1015.98
2018-07-06T04:40:56.857Z,1015.98
2018-07-06T04:42:23.976Z,1016.00
2018-07-06T04:43:51.500Z,1016.01
2018-07-06T04:45:19.098Z,1016.02
2018-07-06T04:46:46.487Z,1015.99
2018-07-06T04:48:13.431Z,1016.00
2018-07-06T04:49:40.716Z,1016.03
2018-07-06T04:51:08.333Z,1016.02
2018-07-06T04:52:35.208Z,1016.04
2018-07-06T04:54:02.764Z,1016.07
2018-07-06T04:55:30.119Z,1016.05
2018-07-06T04:56:56.859Z,1016.07
2018-07-06T04:58:23.665Z,1016.06
2018-07-06T04:59:51.077Z,1016.09
2018-07-06T05:01:18.423Z,1016.08
2018-07-06T05:02:45.521Z,1016.09
2018-07-06T05:04:13.118Z,1016.09
2018-07-06T05:05:40.424Z,1016.11
2018-07-06T05:07:07.744Z,1016.09
2018-07-06T05:08:35.219Z,1016.10
2018-07-06T05:10:02.833Z,1016.08
2018-07-06T05:11:30.198Z,1016.09
2018-07-06T05:12:57.377Z,1016.09
2018-07-06T05:14:24.535Z,1016.10
2018-07-06T05:15:51.959Z,1016.11
2018-07-06T05:17:19.241Z,1016.13
2018-07-06T05:18:46.452Z,1016.08
2018-07-06T05:20:14.054Z,1016.09
2018-07-06T05:21:41.347Z,1016.09
2018-07-06T05:23:08.369Z,1016.11
2018-07-06T05:24:35.833Z,1016.11
2018-07-06T05:26:02.974Z,1016.13
2018-07-06T05:27:29.792Z,1016.13
2018-07-06T05:28:57.333Z,1016.10
2018-07-06T05:30:24.643Z,1016.16
2018-07-06T05:31:52.217Z,1016.17
2018-07-06T05:33:19.736Z,1016.19
2018-07-06T05:34:47.330Z,1016.20
2018-07-06T05:36:14.785Z,1016.18
2018-07-06T05:37:42.169Z,1016.23
2018-07-06T05:39:09.534Z,1016.24
2018-07-06T05:40:37.085Z,1016.24
2018-07-06T05:42:04.492Z,1016.22
2018-07-06T05:43:32.027Z,1016.22
2018-07-06T05:44:59.508Z,1016.25
2018-07-06T05:46:27.003Z,1016.28
2018-07-06T05:47:53.975Z,1016.30
2018-07-06T05:49:21.215Z,1016.30
2018-07-06T05:50:48.550Z,1016.28
2018-07-06T05:52:15.342Z,1016.26
2018-07-06T05:53:42.700Z,1016.27
2018-07-06T05:55:10.189Z,1016.28
2018-07-06T05:56:37.425Z,1016.28
2018-07-06T05:58:04.948Z,1016.30
2018-07-06T05:59:32.332Z,1016.31
2018-07-06T06:00:59.591Z,1016.35
2018-07-06T06:02:27.003Z,1016.37
2018-07-06T06:03:54.363Z,1016.37
2018-07-06T06:05:21.955Z,1016.39
2018-07-06T06:06:49.447Z,1016.36
2018-07-06T06:08:16.207Z,1016.38
2018-07-06T06:09:42.791Z,1016.39
2018-07-06T06:11:10.340Z,1016.40
2018-07-06T06:12:37.765Z,1016.43
2018-07-06T06:14:05.043Z,1016.43
2018-07-06T06:15:32.559Z,1016.47
2018-07-06T06:16:59.744Z,1016.43
2018-07-06T06:18:27.370Z,1016.48
2018-07-06T06:19:54.656Z,1016.47
2018-07-06T06:21:21.914Z,1016.49
2018-07-06T06:22:49.219Z,1016.48
2018-07-06T06:24:16.653Z,1016.47
2018-07-06T06:25:44.059Z,1016.48
2018-07-06T06:27:11.300Z,1016.48
2018-07-06T06:28:38.801Z,1016.47
2018-07-06T06:30:06.331Z,1016.46
2018-07-06T06:31:33.723Z,1016.47
2018-07-06T06:33:01.318Z,1016.45
2018-07-06T06:34:28.720Z,1016.46
2018-07-06T06:35:55.623Z,1016.51
2018-07-06T06:37:22.204Z,1016.53
2018-07-06T06:38:49.749Z,1016.56
2018-07-06T06:40:17.045Z,1016.55
2018-07-06T06:41:44.470Z,1016.54
2018-07-06T06:43:11.384Z,1016.53
2018-07-06T06:44:38.753Z,1016.54
2018-07-06T06:46:05.733Z,1016.49
2018-07-06T06:47:33.387Z,1016.52
2018-07-06T06:49:00.696Z,1016.53
2018-07-06T06:50:28.034Z,1016.56
2018-07-06T06:51:55.078Z,1016.54
2018-07-06T06:53:22.607Z,1016.58
2018-07-06T06:54:49.975Z,1016.55
2018-07-06T06:56:16.864Z,1016.55
2018-07-06T06:57:44.055Z,1016.61
2018-07-06T06:59:11.287Z,1016.59
2018-07-06T07:00:38.868Z,1016.62
2018-07-06T07:02:05.760Z,1016.61
2018-07-06T07:03:33.368Z,1016.63
2018-07-06T07:05:00.143Z,1016.63
2018-07-06T07:06:27.619Z,1016.63
2018-07-06T07:07:54.640Z,1016.62
2018-07-06T07:09:21.658Z,1016.64
2018-07-06T07:10:49.036Z,1016.64
2018-07-06T07:12:16.540Z,1016.67
2018-07-06T07:13:43.555Z,1016.66
2018-07-06T07:15:10.724Z,1016.70
2018-07-06T07:16:38.201Z,1016.74
2018-07-06T07:18:04.989Z,1016.75
2018-07-06T07:19:32.440Z,1016.76
2018-07-06T07:20:59.615Z,1016.76
2018-07-06T07:22:26.966Z,1016.75
2018-07-06T07:23:54.300Z,1016.77
2018-07-06T07:25:20.951Z,1016.76
2018-07-06T07:26:48.495Z,1016.76
2018-07-06T07:28:16.149Z,1016.76
2018-07-06T07:29:43.685Z,1016.75
2018-07-06T07:31:10.591Z,1016.76
2018-07-06T07:32:37.866Z,1016.72
2018-07-06T07:34:04.719Z,1016.75
2018-07-06T07:35:32.210Z,1016.75
2018-07-06T07:36:59.649Z,1016.75
2018-07-06T07:38:26.533Z,1016.74
2018-07-06T07:39:54.002Z,1016.73
2018-07-06T07:41:21.562Z,1016.73
2018-07-06T07:42:49.007Z,1016.72
2018-07-06T07:44:16.514Z,1016.76
2018-07-06T07:45:43.444Z,1016.75
2018-07-06T07:47:10.497Z,1016.76
2018-07-06T07:48:37.347Z,1016.70
2018-07-06T07:50:04.808Z,1016.72
2018-07-06T07:51:31.563Z,1016.71
2018-07-06T07:52:58.982Z,1016.69
2018-07-06T07:54:25.799Z,1016.68
2018-07-06T07:55:53.260Z,1016.64
2018-07-06T07:57:20.916Z,1016.67
2018-07-06T07:58:48.482Z,1016.68
2018-07-06T08:00:15.992Z,1016.67
2018-07-06T08:01:43.007Z,1016.71
2018-07-06T08:03:09.828Z,1016.71
2018-07-06T08:04:37.047Z,1016.72
2018-07-06T08:06:03.953Z,1016.69
2018-07-06T08:07:31.506Z,1016.70
2018-07-06T08:08:59.213Z,1016.74
2018-07-06T08:10:26.545Z,1016.74
2018-07-06T08:11:54.303Z,1016.74
2018-07-06T08:13:20.968Z,1016.78
2018-07-06T08:14:48.055Z,1016.76
2018-07-06T08:16:15.703Z,1016.76
2018-07-06T08:17:42.769Z,1016.74
2018-07-06T08:19:10.282Z,1016.74
2018-07-06T08:20:37.639Z,1016.69
2018-07-06T08:22:04.961Z,1016.70
2018-07-06T08:23:32.607Z,1016.67
2018-07-06T08:24:59.562Z,1016.63
2018-07-06T08:26:27.169Z,1016.67
2018-07-06T08:27:54.429Z,1016.71
2018-07-06T08:29:21.252Z,1016.69
2018-07-06T08:30:48.870Z,1016.69
2018-07-06T08:32:16.155Z,1016.70
2018-07-06T08:33:43.753Z,1016.72
2018-07-06T08:35:11.176Z,1016.72
2018-07-06T08:36:38.323Z,1016.73
2018-07-06T08:38:05.878Z,1016.72
2018-07-06T08:39:33.090Z,1016.71
2018-07-06T08:41:00.460Z,1016.70
2018-07-06T08:42:27.933Z,1016.72
2018-07-06T08:43:54.636Z,1016.68
2018-07-06T08:45:22.251Z,1016.75
2018-07-06T08:46:49.236Z,1016.77
2018-07-06T08:48:16.744Z,1016.75
2018-07-06T08:49:44.110Z,1016.74
2018-07-06T08:51:11.390Z,1016.75
2018-07-06T08:52:38.463Z,1016.75
2018-07-06T08:54:06.033Z,1016.79
2018-07-06T08:55:33.629Z,1016.79
2018-07-06T08:57:00.615Z,1016.82
2018-07-06T08:58:28.082Z,1016.82
2018-07-06T08:59:55.130Z,1016.79
2018-07-06T09:01:22.374Z,1016.77
2018-07-06T09:02:49.751Z,1016.75
2018-07-06T09:04:16.897Z,1016.76
2018-07-06T09:05:44.386Z,1016.78
2018-07-06T09:07:11.696Z,1016.72
2018-07-06T09:08:39.079Z,1016.76
2018-07-06T09:10:06.497Z,1016.80
2018-07-06T09:11:33.608Z,1016.79
2018-07-06T09:13:00.941Z,1016.80
2018-07-06T09:14:28.372Z,1016.85
2018-07-06T09:15:55.833Z,1016.80
2018-07-06T09:17:22.840Z,1016.85
2018-07-06T09:18:50.388Z,1016.76
2018-07-06T09:20:17.662Z,1016.79
2018-07-06T09:21:44.314Z,1016.78
2018-07-06T09:23:11.620Z,1016.80
2018-07-06T09:24:39.118Z,1016.78
2018-07-06T09:26:05.998Z,1016.78
2018-07-06T09:27:33.505Z,1016.79
2018-07-06T09:29:00.489Z,1016.74
2018-07-06T09:30:27.475Z,1016.82
2018-07-06T09:31:54.759Z,1016.81
2018-07-06T09:33:22.053Z,1016.78
2018-07-06T09:34:49.643Z,1016.79
2018-07-06T09:36:17.235Z,1016.77
2018-07-06T09:37:44.585Z,1016.77
2018-07-06T09:39:12.211Z,1016.74
2018-07-06T09:40:39.680Z,1016.78
2018-07-06T09:42:07.017Z,1016.75
2018-07-06T09:43:34.578Z,1016.74
2018-07-06T09:45:01.580Z,1016.68
2018-07-06T09:46:28.814Z,1016.64
2018-07-06T09:47:56.075Z,1016.66
2018-07-06T09:49:23.519Z,1016.71
2018-07-06T09:50:50.599Z,1016.74
2018-07-06T09:52:18.105Z,1016.71
2018-07-06T09:53:45.674Z,1016.72
2018-07-06T09:55:13.117Z,1016.73
2018-07-06T09:56:40.657Z,1016.75
2018-07-06T09:58:08.392Z,1016.73
2018-07-06T09:59:35.360Z,1016.73
2018-07-06T10:01:02.523Z,1016.75
2018-07-06T10:02:29.820Z,1016.71
2018-07-06T10:03:57.136Z,1016.76
2018-07-06T10:05:24.309Z,1016.72
2018-07-06T10:06:51.338Z,1016.72
2018-07-06T10:08:18.575Z,1016.72
2018-07-06T10:09:46.006Z,1016.69
2018-07-06T10:11:13.620Z,1016.67
2018-07-06T10:12:40.993Z,1016.73
2018-07-06T10:14:08.253Z,1016.70
2018-07-06T10:15:35.551Z,1016.72
2018-07-06T10:17:02.739Z,1016.71
2018-07-06T10:18:30.148Z,1016.71
2018-07-06T10:19:57.591Z,1016.76
2018-07-06T10:21:25.982Z,1016.77
2018-07-06T10:22:52.345Z,1016.80
2018-07-06T10:24:19.913Z,1016.75
2018-07-06T10:25:47.551Z,1016.82
2018-07-06T10:27:15.096Z,1016.78
2018-07-06T10:28:42.606Z,1016.81
2018-07-06T10:30:10.225Z,1016.77
2018-07-06T10:31:37.723Z,1016.75
2018-07-06T10:33:05.292Z,1016.76
2018-07-06T10:34:32.893Z,1016.80
2018-07-06T10:36:00.262Z,1016.76
2018-07-06T10:37:27.761Z,1016.76
2018-07-06T10:38:55.146Z,1016.75
2018-07-06T10:40:22.754Z,1016.76
2018-07-06T10:41:50.304Z,1016.76
2018-07-06T10:43:17.911Z,1016.83
2018-07-06T10:44:45.297Z,1016.75
2018-07-06T10:46:12.790Z,1016.79
2018-07-06T10:47:39.853Z,1016.75
2018-07-06T10:49:07.391Z,1016.77
2018-07-06T10:50:34.806Z,1016.73
2018-07-06T10:52:01.879Z,1016.69
2018-07-06T10:53:29.170Z,1016.74
2018-07-06T10:54:56.176Z,1016.74
2018-07-06T10:56:23.444Z,1016.77
2018-07-06T10:57:50.452Z,1016.81
2018-07-06T10:59:17.998Z,1016.82
2018-07-06T11:00:45.491Z,1016.80
2018-07-06T11:02:13.091Z,1016.80
2018-07-06T11:03:40.644Z,1016.73
2018-07-06T11:05:07.913Z,1016.67
2018-07-06T11:06:35.437Z,1016.66
2018-07-06T11:08:03.037Z,1016.72
2018-07-06T11:09:30.621Z,1016.69
2018-07-06T11:10:58.135Z,1016.68
2018-07-06T11:12:25.504Z,1016.70
2018-07-06T11:13:53.127Z,1016.72
2018-07-06T11:15:20.745Z,1016.77
2018-07-06T11:16:48.446Z,1016.77
2018-07-06T11:18:15.553Z,1016.70
2018-07-06T11:19:43.048Z,1016.71
2018-07-06T11:21:10.407Z,1016.72
2018-07-06T11:22:37.913Z,1016.72
2018-07-06T11:24:05.182Z,1016.73
2018-07-06T11:25:32.609Z,1016.74
2018-07-06T11:26:59.649Z,1016.78
2018-07-06T11:28:26.923Z,1016.72
2018-07-06T11:29:54.503Z,1016.73
2018-07-06T11:31:22.075Z,1016.76
2018-07-06T11:32:49.465Z,1016.77
2018-07-06T11:34:16.891Z,1016.81
2018-07-06T11:35:44.536Z,1016.73
2018-07-06T11:37:12.298Z,1016.74
2018-07-06T11:38:39.885Z,1016.73
2018-07-06T11:40:07.330Z,1016.73
2018-07-06T11:41:34.786Z,1016.72
2018-07-06T11:43:02.344Z,1016.73
2018-07-06T11:44:29.871Z,1016.68
2018-07-06T11:45:57.175Z,1016.75
2018-07-06T11:47:24.393Z,1016.74
2018-07-06T11:48:52.162Z,1016.76
2018-07-06T11:50:19.794Z,1016.77
2018-07-06T11:51:47.138Z,1016.77
2018-07-06T11:53:14.816Z,1016.72
2018-07-06T11:54:42.395Z,1016.70
2018-07-06T11:56:09.973Z,1016.73
2018-07-06T11:57:37.717Z,1016.76
2018-07-06T11:59:05.200Z,1016.75
2018-07-06T12:00:32.483Z,1016.78
2018-07-06T12:02:00.099Z,1016.72
2018-07-06T12:03:27.339Z,1016.79
2018-07-06T12:04:54.670Z,1016.79
2018-07-06T12:06:22.085Z,1016.80
2018-07-06T12:07:49.376Z,1016.82
2018-07-06T12:09:16.798Z,1016.83
2018-07-06T12:10:45.454Z,1016.86
2018-07-06T12:12:11.998Z,1016.81
2018-07-06T12:13:39.447Z,1016.79
2018-07-06T12:15:07.087Z,1016.82
2018-07-06T12:16:34.433Z,1016.82
2018-07-06T12:18:01.935Z,1016.84
2018-07-06T12:19:29.731Z,1016.80
2018-07-06T12:20:57.112Z,1016.78
2018-07-06T12:22:24.624Z,1016.82
2018-07-06T12:23:52.144Z,1016.83
2018-07-06T12:25:19.607Z,1016.84
2018-07-06T12:26:47.129Z,1016.77
2018-07-06T12:28:14.733Z,1016.81
2018-07-06T12:29:42.178Z,1016.83
2018-07-06T12:31:09.705Z,1016.84
2018-07-06T12:32:37.374Z,1016.87
2018-07-06T12:34:04.984Z,1016.90
2018-07-06T12:35:32.243Z,1016.84
2018-07-06T12:36:59.435Z,1016.87
2018-07-06T12:38:26.979Z,1016.87
2018-07-06T12:39:54.441Z,1016.89
2018-07-06T12:41:21.864Z,1016.87
2018-07-06T12:42:49.502Z,1016.88
2018-07-06T12:44:14.162Z,1016.89
2018-07-06T12:45:44.560Z,1016.90
2018-07-06T12:47:12.145Z,1016.91
2018-07-06T12:48:39.787Z,1016.94
2018-07-06T12:50:07.246Z,1016.88
2018-07-06T12:51:34.895Z,1016.98
2018-07-06T12:53:02.352Z,1016.94
2018-07-06T12:54:29.796Z,1016.88
2018-07-06T12:55:57.452Z,1016.95
2018-07-06T12:57:25.031Z,1016.96
2018-07-06T12:58:52.414Z,1016.96
2018-07-06T13:00:19.485Z,1016.98
2018-07-06T13:01:47.123Z,1016.97
2018-07-06T13:03:14.414Z,1016.93
2018-07-06T13:04:41.872Z,1016.99
2018-07-06T13:06:09.501Z,1016.97
2018-07-06T13:07:37.208Z,1016.94
2018-07-06T13:09:04.748Z,1017.00
2018-07-06T13:10:32.119Z,1017.00
2018-07-06T13:11:59.600Z,1017.02
2018-07-06T13:13:26.764Z,1017.00
2018-07-06T13:14:54.216Z,1017.05
2018-07-06T13:16:21.825Z,1017.00
2018-07-06T13:17:49.325Z,1017.05
2018-07-06T13:19:16.833Z,1017.09
2018-07-06T13:20:44.106Z,1017.10
2018-07-06T13:22:11.577Z,1017.03
2018-07-06T13:23:39.067Z,1017.13
2018-07-06T13:25:06.736Z,1017.19
2018-07-06T13:26:33.948Z,1017.15
2018-07-06T13:28:01.378Z,1017.19
2018-07-06T13:29:28.506Z,1017.11
2018-07-06T13:30:55.956Z,1017.11
2018-07-06T13:32:23.542Z,1017.15
2018-07-06T13:33:51.036Z,1017.14
2018-07-06T13:35:18.392Z,1017.19
2018-07-06T13:36:48.974Z,1017.17
2018-07-06T13:38:13.613Z,1017.24
2018-07-06T13:39:41.043Z,1017.20
2018-07-06T13:41:08.735Z,1017.25
2018-07-06T13:42:35.955Z,1017.22
2018-07-06T13:44:03.351Z,1017.32
2018-07-06T13:45:31.113Z,1017.29
2018-07-06T13:46:58.536Z,1017.30
2018-07-06T13:48:25.872Z,1017.28
2018-07-06T13:49:53.397Z,1017.32
2018-07-06T13:51:20.674Z,1017.31
2018-07-06T13:52:48.067Z,1017.28
2018-07-06T13:54:15.442Z,1017.30
2018-07-06T13:55:43.195Z,1017.33
2018-07-06T13:57:10.726Z,1017.32
2018-07-06T13:58:38.545Z,1017.35
2018-07-06T14:00:06.070Z,1017.33
2018-07-06T14:01:33.376Z,1017.32
2018-07-06T14:03:00.401Z,1017.36
2018-07-06T14:04:27.659Z,1017.32
2018-07-06T14:05:54.962Z,1017.34
2018-07-06T14:07:22.480Z,1017.39
2018-07-06T14:08:49.960Z,1017.41
2018-07-06T14:10:17.582Z,1017.38
2018-07-06T14:11:44.617Z,1017.42
2018-07-06T14:13:12.042Z,1017.49
2018-07-06T14:14:39.648Z,1017.47
2018-07-06T14:16:07.028Z,1017.45
2018-07-06T14:17:34.482Z,1017.49
2018-07-06T14:19:01.796Z,1017.47
2018-07-06T14:20:29.004Z,1017.52
2018-07-06T14:21:56.532Z,1017.54
2018-07-06T14:23:23.689Z,1017.51
2018-07-06T14:24:51.064Z,1017.49
2018-07-06T14:26:18.395Z,1017.52
2018-07-06T14:27:45.629Z,1017.52
2018-07-06T14:29:13.097Z,1017.51
2018-07-06T14:30:40.771Z,1017.51
2018-07-06T14:32:08.219Z,1017.51
2018-07-06T14:33:35.715Z,1017.49
2018-07-06T14:35:03.080Z,1017.50
2018-07-06T14:36:30.789Z,1017.49
2018-07-06T14:37:58.105Z,1017.53
2018-07-06T14:39:25.664Z,1017.57
2018-07-06T14:40:52.830Z,1017.53
2018-07-06T14:42:20.330Z,1017.58
2018-07-06T14:43:47.700Z,1017.59
2018-07-06T14:45:16.051Z,1017.55
2018-07-06T14:46:42.066Z,1017.57
2018-07-06T14:48:09.618Z,1017.54
2018-07-06T14:49:37.215Z,1017.59
2018-07-06T14:51:04.469Z,1017.58
2018-07-06T14:52:31.713Z,1017.56
2018-07-06T14:53:59.013Z,1017.59
2018-07-06T14:55:26.409Z,1017.61
2018-07-06T14:56:54.012Z,1017.58
2018-07-06T14:58:21.293Z,1017.61
2018-07-06T14:59:48.664Z,1017.64
2018-07-06T15:01:16.123Z,1017.66
2018-07-06T15:02:43.454Z,1017.68
2018-07-06T15:04:10.826Z,1017.64
2018-07-06T15:05:38.265Z,1017.65
2018-07-06T15:07:05.604Z,1017.68
2018-07-06T15:08:32.846Z,1017.71
2018-07-06T15:10:00.274Z,1017.69
2018-07-06T15:11:27.606Z,1017.67
2018-07-06T15:12:55.045Z,1017.65
2018-07-06T15:14:22.192Z,1017.70
2018-07-06T15:15:49.765Z,1017.67
2018-07-06T15:17:17.404Z,1017.71
2018-07-06T15:18:44.993Z,1017.73
2018-07-06T15:20:12.328Z,1017.69
2018-07-06T15:21:39.881Z,1017.72
2018-07-06T15:23:06.805Z,1017.76
2018-07-06T15:24:34.485Z,1017.75
2018-07-06T15:26:02.109Z,1017.74
2018-07-06T15:27:29.585Z,1017.81
2018-07-06T15:28:56.976Z,1017.78
2018-07-06T15:30:24.101Z,1017.75
2018-07-06T15:31:51.636Z,1017.78
2018-07-06T15:33:19.077Z,1017.80
2018-07-06T15:34:46.502Z,1017.80
2018-07-06T15:36:14.047Z,1017.84
2018-07-06T15:37:41.416Z,1017.80
2018-07-06T15:39:08.811Z,1017.82
2018-07-06T15:40:36.302Z,1017.86
2018-07-06T15:42:03.913Z,1017.87
2018-07-06T15:43:31.619Z,1017.87
2018-07-06T15:44:59.107Z,1017.88
2018-07-06T15:46:26.574Z,1017.87
2018-07-06T15:47:54.034Z,1017.90
2018-07-06T15:49:21.466Z,1017.87
2018-07-06T15:50:48.780Z,1017.94
2018-07-06T15:52:16.112Z,1017.91
2018-07-06T15:53:44.751Z,1017.91
2018-07-06T15:55:11.063Z,1017.92
2018-07-06T15:56:38.489Z,1018.00
2018-07-06T15:58:06.164Z,1017.95
2018-07-06T15:59:33.526Z,1017.92
2018-07-06T16:01:01.002Z,1017.98
2018-07-06T16:02:28.408Z,1017.97
2018-07-06T16:03:55.689Z,1017.98
2018-07-06T16:05:23.130Z,1018.01
2018-07-06T16:06:50.202Z,1017.99
2018-07-06T16:08:17.511Z,1018.00
2018-07-06T16:09:44.877Z,1018.02
2018-07-06T16:11:12.043Z,1018.04
2018-07-06T16:12:39.461Z,1018.05
2018-07-06T16:14:06.913Z,1018.03
2018-07-06T16:15:34.246Z,1018.02
2018-07-06T16:17:01.698Z,1018.00
2018-07-06T16:18:29.178Z,1018.05
2018-07-06T16:19:56.459Z,1018.09
2018-07-06T16:21:23.720Z,1018.15
2018-07-06T16:22:51.023Z,1018.14
2018-07-06T16:24:18.671Z,1018.13
2018-07-06T16:25:46.015Z,1018.14
2018-07-06T16:27:13.520Z,1018.12
2018-07-06T16:28:41.002Z,1018.14
2018-07-06T16:30:08.502Z,1018.14
2018-07-06T16:31:36.053Z,1018.18
2018-07-06T16:33:03.305Z,1018.21
2018-07-06T16:34:30.564Z,1018.24
2018-07-06T16:35:57.963Z,1018.23
2018-07-06T16:37:25.171Z,1018.23
2018-07-06T16:38:52.635Z,1018.24
2018-07-06T16:40:19.559Z,1018.24
2018-07-06T16:41:47.176Z,1018.26
2018-07-06T16:43:14.815Z,1018.27
2018-07-06T16:44:42.276Z,1018.30
2018-07-06T16:46:09.649Z,1018.29
2018-07-06T16:47:37.094Z,1018.29
2018-07-06T16:49:04.584Z,1018.29
2018-07-06T16:50:32.171Z,1018.31
2018-07-06T16:51:59.607Z,1018.32
2018-07-06T16:53:27.164Z,1018.34
2018-07-06T16:54:54.317Z,1018.35
2018-07-06T16:56:21.823Z,1018.39
2018-07-06T16:57:49.242Z,1018.40
2018-07-06T16:59:16.865Z,1018.41
2018-07-06T17:00:44.448Z,1018.41
2018-07-06T17:02:11.957Z,1018.41
2018-07-06T17:03:39.327Z,1018.40
2018-07-06T17:05:06.613Z,1018.44
2018-07-06T17:06:34.155Z,1018.44
2018-07-06T17:08:01.605Z,1018.47
2018-07-06T17:09:29.090Z,1018.48
2018-07-06T17:10:56.670Z,1018.46
2018-07-06T17:12:24.199Z,1018.45
2018-07-06T17:13:51.887Z,1018.46
2018-07-06T17:15:19.160Z,1018.51
2018-07-06T17:16:46.779Z,1018.51
2018-07-06T17:18:13.857Z,1018.50
2018-07-06T17:19:41.541Z,1018.50
2018-07-06T17:21:09.006Z,1018.53
2018-07-06T17:22:36.513Z,1018.53
2018-07-06T17:24:04.056Z,1018.52
2018-07-06T17:25:31.432Z,1018.57
2018-07-06T17:26:58.936Z,1018.55
2018-07-06T17:28:26.379Z,1018.58
2018-07-06T17:29:53.975Z,1018.58
2018-07-06T17:31:21.467Z,1018.61
2018-07-06T17:32:49.044Z,1018.63
2018-07-06T17:34:16.417Z,1018.64
2018-07-06T17:35:51.898Z,1018.67